createdAt,value
2023-08-12T00:00:01.708Z,12.27
2023-08-12T00:00:33.811Z,12.28
2023-08-12T00:01:05.944Z,12.27
2023-08-12T00:01:38.011Z,12.25
2023-08-12T00:02:10.030Z,12.23
2023-08-12T00:02:42.596Z,12.22
2023-08-12T00:03:14.866Z,12.21
2023-08-12T00:03:47.141Z,12.21
2023-08-12T00:04:19.219Z,12.17
2023-08-12T00:04:51.229Z,12.15
2023-08-12T00:05:23.454Z,12.15
2023-08-12T00:05:55.633Z,12.17
2023-08-12T00:06:27.693Z,12.15
2023-08-12T00:06:59.684Z,12.15
2023-08-12T00:07:31.724Z,12.14
2023-08-12T00:08:04.153Z,12.12
2023-08-12T00:08:36.192Z,12.11
2023-08-12T00:09:08.506Z,12.13
2023-08-12T00:09:40.551Z,12.15
2023-08-12T00:10:14.016Z,12.13
2023-08-12T00:10:46.025Z,12.12
2023-08-12T00:11:19.414Z,12.12
2023-08-12T00:11:51.383Z,12.10
2023-08-12T00:12:23.614Z,12.12
2023-08-12T00:12:55.605Z,12.11
2023-08-12T00:13:27.634Z,12.11
2023-08-12T00:13:59.671Z,12.12
2023-08-12T00:14:31.689Z,12.10
2023-08-12T00:15:04.796Z,12.10
2023-08-12T00:15:36.889Z,12.09
2023-08-12T00:16:09.003Z,12.06
2023-08-12T00:16:41.044Z,12.06
2023-08-12T00:17:13.232Z,12.07
2023-08-12T00:17:45.395Z,12.08
2023-08-12T00:18:17.500Z,12.06
2023-08-12T00:18:49.477Z,12.02
2023-08-12T00:19:21.604Z,12.01
2023-08-12T00:19:53.654Z,12.01
2023-08-12T00:20:25.713Z,12.01
2023-08-12T00:20:57.785Z,12.02
2023-08-12T00:21:29.853Z,11.97
2023-08-12T00:22:01.927Z,11.99
2023-08-12T00:22:34.045Z,11.97
2023-08-12T00:23:06.412Z,11.97
2023-08-12T00:23:39.968Z,11.97
2023-08-12T00:24:12.114Z,11.99
2023-08-12T00:24:44.271Z,11.97
2023-08-12T00:25:16.612Z,11.98
2023-08-12T00:25:50.937Z,11.94
2023-08-12T00:26:24.401Z,11.91
2023-08-12T00:26:56.461Z,11.92
2023-08-12T00:27:28.652Z,11.92
2023-08-12T00:28:00.707Z,11.96
2023-08-12T00:28:33.219Z,11.99
2023-08-12T00:29:05.230Z,11.97
2023-08-12T00:29:37.599Z,12.02
2023-08-12T00:30:10.132Z,12.03
2023-08-12T00:30:42.143Z,12.04
2023-08-12T00:31:14.174Z,12.05
2023-08-12T00:31:46.296Z,12.07
2023-08-12T00:32:18.364Z,12.08
2023-08-12T00:32:50.492Z,12.09
2023-08-12T00:33:22.621Z,12.10
2023-08-12T00:33:54.590Z,12.14
2023-08-12T00:34:26.700Z,12.15
2023-08-12T00:34:58.751Z,12.17
2023-08-12T00:35:30.831Z,12.20
2023-08-12T00:36:03.016Z,12.20
2023-08-12T00:36:35.076Z,12.20
2023-08-12T00:37:07.287Z,12.19
2023-08-12T00:37:39.318Z,12.21
2023-08-12T00:38:11.451Z,12.23
2023-08-12T00:38:43.499Z,12.24
2023-08-12T00:39:15.528Z,12.23
2023-08-12T00:39:47.640Z,12.23
2023-08-12T00:40:19.792Z,12.21
2023-08-12T00:40:51.978Z,12.21
2023-08-12T00:41:25.443Z,12.23
2023-08-12T00:41:57.528Z,12.22
2023-08-12T00:42:29.604Z,12.21
2023-08-12T00:43:01.707Z,12.19
2023-08-12T00:43:33.853Z,12.20
2023-08-12T00:44:06.339Z,12.19
2023-08-12T00:44:38.459Z,12.17
2023-08-12T00:45:11.813Z,12.19
2023-08-12T00:45:44.293Z,12.17
2023-08-12T00:46:16.743Z,12.15
2023-08-12T00:46:49.829Z,12.12
2023-08-12T00:47:22.144Z,12.15
2023-08-12T00:47:54.812Z,12.12
2023-08-12T00:48:27.111Z,12.12
2023-08-12T00:48:59.317Z,12.11
2023-08-12T00:49:33.587Z,12.11
2023-08-12T00:50:06.982Z,12.10
2023-08-12T00:50:41.455Z,12.09
2023-08-12T00:51:13.612Z,12.08
2023-08-12T00:51:47.006Z,12.06
2023-08-12T00:52:19.822Z,12.04
2023-08-12T00:52:52.328Z,12.02
2023-08-12T00:53:24.719Z,12.03
2023-08-12T00:53:59.689Z,11.99
2023-08-12T00:54:31.905Z,12.04
2023-08-12T00:55:04.698Z,12.03
2023-08-12T00:55:37.234Z,12.03
2023-08-12T00:56:09.260Z,12.03
2023-08-12T00:56:43.828Z,12.01
2023-08-12T00:57:16.429Z,12.01
2023-08-12T00:57:49.035Z,12.02
2023-08-12T00:58:21.056Z,12.01
2023-08-12T00:58:53.602Z,12.02
2023-08-12T00:59:27.225Z,12.04
2023-08-12T01:00:00.627Z,12.01
2023-08-12T01:00:33.200Z,12.00
2023-08-12T01:01:05.525Z,12.01
2023-08-12T01:01:41.082Z,11.95
2023-08-12T01:02:13.650Z,11.90
2023-08-12T01:02:47.274Z,11.90
2023-08-12T01:03:19.762Z,11.89
2023-08-12T01:03:53.214Z,11.89
2023-08-12T01:04:25.354Z,11.87
2023-08-12T01:04:57.467Z,11.87
2023-08-12T01:05:31.300Z,11.88
2023-08-12T01:06:04.134Z,11.84
2023-08-12T01:06:36.254Z,11.83
2023-08-12T01:07:08.278Z,11.81
2023-08-12T01:07:40.426Z,11.75
2023-08-12T01:08:12.507Z,11.73
2023-08-12T01:08:47.156Z,11.70
2023-08-12T01:09:19.638Z,11.70
2023-08-12T01:09:51.817Z,11.73
2023-08-12T01:10:28.305Z,11.73
2023-08-12T01:11:17.676Z,11.71
2023-08-12T01:11:58.855Z,11.67
2023-08-12T01:12:38.026Z,11.63
2023-08-12T01:13:20.764Z,11.64
2023-08-12T01:14:00.847Z,11.63
2023-08-12T01:14:43.865Z,11.60
2023-08-12T01:15:21.450Z,11.57
2023-08-12T01:15:56.623Z,11.57
2023-08-12T01:16:33.876Z,11.54
2023-08-12T01:17:10.573Z,11.52
2023-08-12T01:17:44.209Z,11.52
2023-08-12T01:18:17.296Z,11.53
2023-08-12T01:18:51.125Z,11.50
2023-08-12T01:19:31.144Z,11.45
2023-08-12T01:20:04.244Z,11.43
2023-08-12T01:20:37.550Z,11.42
2023-08-12T01:21:16.460Z,11.38
2023-08-12T01:21:54.081Z,11.36
2023-08-12T01:22:28.524Z,11.37
2023-08-12T01:23:11.374Z,11.37
2023-08-12T01:23:43.635Z,11.34
2023-08-12T01:24:15.674Z,11.36
2023-08-12T01:24:47.860Z,11.29
2023-08-12T01:25:20.033Z,11.26
2023-08-12T01:25:52.019Z,11.23
2023-08-12T01:26:24.082Z,11.25
2023-08-12T01:26:56.214Z,11.26
2023-08-12T01:27:28.232Z,11.26
2023-08-12T01:28:00.277Z,11.25
2023-08-12T01:28:32.310Z,11.24
2023-08-12T01:29:04.768Z,11.26
2023-08-12T01:29:40.729Z,11.29
2023-08-12T01:30:13.687Z,11.29
2023-08-12T01:30:54.261Z,11.26
2023-08-12T01:31:35.068Z,11.30
2023-08-12T01:32:13.421Z,11.33
2023-08-12T01:32:55.165Z,11.32
2023-08-12T01:33:39.611Z,11.32
2023-08-12T01:34:18.668Z,11.37
2023-08-12T01:34:58.670Z,11.39
2023-08-12T01:35:37.193Z,11.41
2023-08-12T01:36:13.761Z,11.42
2023-08-12T01:36:50.705Z,11.46
2023-08-12T01:37:26.313Z,11.43
2023-08-12T01:38:03.692Z,11.41
2023-08-12T01:38:40.858Z,11.39
2023-08-12T01:39:13.456Z,11.39
2023-08-12T01:39:48.036Z,11.41
2023-08-12T01:40:20.896Z,11.42
2023-08-12T01:40:54.903Z,11.48
2023-08-12T01:41:27.551Z,11.53
2023-08-12T01:42:00.536Z,11.53
2023-08-12T01:42:34.923Z,11.56
2023-08-12T01:43:07.226Z,11.62
2023-08-12T01:43:40.286Z,11.63
2023-08-12T01:44:12.865Z,11.70
2023-08-12T01:44:45.059Z,11.75
2023-08-12T01:45:19.078Z,11.80
2023-08-12T01:45:51.393Z,11.83
2023-08-12T01:46:23.673Z,11.85
2023-08-12T01:46:56.038Z,11.84
2023-08-12T01:47:28.300Z,11.84
2023-08-12T01:48:00.510Z,11.88
2023-08-12T01:48:32.679Z,11.92
2023-08-12T01:49:05.184Z,11.97
2023-08-12T01:49:37.237Z,11.97
2023-08-12T01:50:10.034Z,11.99
2023-08-12T01:50:42.121Z,12.03
2023-08-12T01:51:14.156Z,12.05
2023-08-12T01:51:46.238Z,12.06
2023-08-12T01:52:18.335Z,12.07
2023-08-12T01:52:50.369Z,12.06
2023-08-12T01:53:22.472Z,12.07
2023-08-12T01:53:55.959Z,12.07
2023-08-12T01:54:28.025Z,12.10
2023-08-12T01:55:00.200Z,12.13
2023-08-12T01:55:32.319Z,12.12
2023-08-12T01:56:04.653Z,12.14
2023-08-12T01:56:36.713Z,12.15
2023-08-12T01:57:08.902Z,12.17
2023-08-12T01:57:41.310Z,12.16
2023-08-12T01:58:13.359Z,12.23
2023-08-12T01:58:45.486Z,12.23
2023-08-12T01:59:17.555Z,12.27
2023-08-12T01:59:49.688Z,12.28
2023-08-12T02:00:21.840Z,12.27
2023-08-12T02:00:53.956Z,12.28
2023-08-12T02:01:26.047Z,12.29
2023-08-12T02:01:58.078Z,12.30
2023-08-12T02:02:30.249Z,12.31
2023-08-12T02:03:02.529Z,12.35
2023-08-12T02:03:34.746Z,12.35
2023-08-12T02:04:07.152Z,12.37
2023-08-12T02:04:40.108Z,12.39
2023-08-12T02:05:12.166Z,12.34
2023-08-12T02:05:44.140Z,12.39
2023-08-12T02:06:16.179Z,12.38
2023-08-12T02:06:48.228Z,12.37
2023-08-12T02:07:20.235Z,12.36
2023-08-12T02:07:52.387Z,12.33
2023-08-12T02:08:24.518Z,12.32
2023-08-12T02:08:58.035Z,12.35
2023-08-12T02:09:30.126Z,12.35
2023-08-12T02:10:02.234Z,12.33
2023-08-12T02:10:34.309Z,12.39
2023-08-12T02:11:06.377Z,12.38
2023-08-12T02:11:38.528Z,12.38
2023-08-12T02:12:10.833Z,12.39
2023-08-12T02:12:42.894Z,12.39
2023-08-12T02:13:14.892Z,12.41
2023-08-12T02:13:46.918Z,12.42
2023-08-12T02:14:18.893Z,12.43
2023-08-12T02:14:50.887Z,12.44
2023-08-12T02:15:22.934Z,12.37
2023-08-12T02:15:55.007Z,12.34
2023-08-12T02:16:27.155Z,12.31
2023-08-12T02:16:59.280Z,12.32
2023-08-12T02:17:31.293Z,12.33
2023-08-12T02:18:03.703Z,12.31
2023-08-12T02:18:35.776Z,12.28
2023-08-12T02:19:08.025Z,12.29
2023-08-12T02:19:40.074Z,12.27
2023-08-12T02:20:12.571Z,12.22
2023-08-12T02:20:44.593Z,12.19
2023-08-12T02:21:16.600Z,12.19
2023-08-12T02:21:48.620Z,12.20
2023-08-12T02:22:20.660Z,12.19
2023-08-12T02:22:52.866Z,12.20
2023-08-12T02:23:24.976Z,12.23
2023-08-12T02:23:58.745Z,12.29
2023-08-12T02:24:30.852Z,12.25
2023-08-12T02:25:02.985Z,12.23
2023-08-12T02:25:35.046Z,12.23
2023-08-12T02:26:07.125Z,12.21
2023-08-12T02:26:39.525Z,12.23
2023-08-12T02:27:11.781Z,12.19
2023-08-12T02:27:43.944Z,12.20
2023-08-12T02:28:15.950Z,12.20
2023-08-12T02:28:48.046Z,12.18
2023-08-12T02:29:20.079Z,12.16
2023-08-12T02:29:52.241Z,12.17
2023-08-12T02:30:24.413Z,12.14
2023-08-12T02:30:56.418Z,12.15
2023-08-12T02:31:28.458Z,12.16
2023-08-12T02:32:00.622Z,12.21
2023-08-12T02:32:32.912Z,12.18
2023-08-12T02:33:05.435Z,12.19
2023-08-12T02:33:37.989Z,12.20
2023-08-12T02:34:09.983Z,12.17
2023-08-12T02:34:42.237Z,12.14
2023-08-12T02:35:14.349Z,12.13
2023-08-12T02:35:46.344Z,12.11
2023-08-12T02:36:18.365Z,12.13
2023-08-12T02:36:50.378Z,12.18
2023-08-12T02:37:22.390Z,12.14
2023-08-12T02:37:54.399Z,12.16
2023-08-12T02:38:26.403Z,12.14
2023-08-12T02:38:59.828Z,12.16
2023-08-12T02:39:31.880Z,12.17
2023-08-12T02:40:05.293Z,12.16
2023-08-12T02:40:37.281Z,12.17
2023-08-12T02:41:09.340Z,12.21
2023-08-12T02:41:41.390Z,12.20
2023-08-12T02:42:13.408Z,12.20
2023-08-12T02:42:45.485Z,12.20
2023-08-12T02:43:17.872Z,12.19
2023-08-12T02:43:49.969Z,12.21
2023-08-12T02:44:22.042Z,12.19
2023-08-12T02:44:54.017Z,12.21
2023-08-12T02:45:26.094Z,12.23
2023-08-12T02:45:58.165Z,12.22
2023-08-12T02:46:30.290Z,12.27
2023-08-12T02:47:02.453Z,12.20
2023-08-12T02:47:34.591Z,12.18
2023-08-12T02:48:07.343Z,12.16
2023-08-12T02:48:39.454Z,12.19
2023-08-12T02:49:11.494Z,12.18
2023-08-12T02:49:43.772Z,12.20
2023-08-12T02:50:15.837Z,12.21
2023-08-12T02:50:48.694Z,12.23
2023-08-12T02:51:23.674Z,12.22
2023-08-12T02:51:55.747Z,12.24
2023-08-12T02:52:27.798Z,12.26
2023-08-12T02:52:59.875Z,12.27
2023-08-12T02:53:31.951Z,12.27
2023-08-12T02:54:05.882Z,12.27
2023-08-12T02:54:38.310Z,12.24
2023-08-12T02:55:10.357Z,12.28
2023-08-12T02:55:42.421Z,12.28
2023-08-12T02:56:14.500Z,12.29
2023-08-12T02:56:46.491Z,12.30
2023-08-12T02:57:18.604Z,12.28
2023-08-12T02:57:50.596Z,12.26
2023-08-12T02:58:22.650Z,12.23
2023-08-12T02:58:54.733Z,12.22
2023-08-12T02:59:26.781Z,12.20
2023-08-12T02:59:58.905Z,12.16
2023-08-12T03:00:31.391Z,12.14
2023-08-12T03:01:04.501Z,12.10
2023-08-12T03:01:36.579Z,12.08
2023-08-12T03:02:08.969Z,12.05
2023-08-12T03:02:43.639Z,12.03
2023-08-12T03:03:15.892Z,12.01
2023-08-12T03:03:48.293Z,11.98
2023-08-12T03:04:20.332Z,11.96
2023-08-12T03:04:52.430Z,11.95
2023-08-12T03:05:24.541Z,11.95
2023-08-12T03:05:56.581Z,11.96
2023-08-12T03:06:28.753Z,11.95
2023-08-12T03:07:00.771Z,11.95
2023-08-12T03:07:32.780Z,11.93
2023-08-12T03:08:05.725Z,11.93
2023-08-12T03:08:37.752Z,11.91
2023-08-12T03:09:11.229Z,11.89
2023-08-12T03:09:43.278Z,11.83
2023-08-12T03:10:15.333Z,11.79
2023-08-12T03:10:47.388Z,11.77
2023-08-12T03:11:19.453Z,11.75
2023-08-12T03:11:51.499Z,11.72
2023-08-12T03:12:23.611Z,11.67
2023-08-12T03:12:55.684Z,11.64
2023-08-12T03:13:28.231Z,11.62
2023-08-12T03:14:00.344Z,11.55
2023-08-12T03:14:32.559Z,11.49
2023-08-12T03:15:06.128Z,11.41
2023-08-12T03:15:40.414Z,11.33
2023-08-12T03:16:13.525Z,11.29
2023-08-12T03:16:45.836Z,11.32
2023-08-12T03:17:17.841Z,11.31
2023-08-12T03:17:49.954Z,11.32
2023-08-12T03:18:22.051Z,11.29
2023-08-12T03:18:54.235Z,11.29
2023-08-12T03:19:26.317Z,11.29
2023-08-12T03:19:58.632Z,11.27
2023-08-12T03:20:30.673Z,11.24
2023-08-12T03:21:07.025Z,11.20
2023-08-12T03:21:39.079Z,11.16
2023-08-12T03:22:11.099Z,11.14
2023-08-12T03:22:43.167Z,11.12
2023-08-12T03:23:15.621Z,11.14
2023-08-12T03:23:47.702Z,11.12
2023-08-12T03:24:21.118Z,11.13
2023-08-12T03:24:53.153Z,11.14
2023-08-12T03:25:25.170Z,11.12
2023-08-12T03:25:57.242Z,11.13
2023-08-12T03:26:29.339Z,11.14
2023-08-12T03:27:01.432Z,11.16
2023-08-12T03:27:33.577Z,11.14
2023-08-12T03:28:05.851Z,11.11
2023-08-12T03:28:37.847Z,11.10
2023-08-12T03:29:09.817Z,11.15
2023-08-12T03:29:41.891Z,11.18
2023-08-12T03:30:14.246Z,11.19
2023-08-12T03:30:51.655Z,11.22
2023-08-12T03:31:23.714Z,11.23
2023-08-12T03:31:55.844Z,11.24
2023-08-12T03:32:28.044Z,11.26
2023-08-12T03:33:00.206Z,11.25
2023-08-12T03:33:32.417Z,11.25
2023-08-12T03:34:04.617Z,11.29
2023-08-12T03:34:36.675Z,11.33
2023-08-12T03:35:09.359Z,11.35
2023-08-12T03:35:45.499Z,11.37
2023-08-12T03:36:17.488Z,11.34
2023-08-12T03:36:49.532Z,11.30
2023-08-12T03:37:21.567Z,11.31
2023-08-12T03:37:53.595Z,11.36
2023-08-12T03:38:25.704Z,11.40
2023-08-12T03:38:57.710Z,11.38
2023-08-12T03:39:31.227Z,11.39
2023-08-12T03:40:03.588Z,11.38
2023-08-12T03:40:39.172Z,11.41
2023-08-12T03:41:11.178Z,11.46
2023-08-12T03:41:43.742Z,11.47
2023-08-12T03:42:15.747Z,11.47
2023-08-12T03:42:47.799Z,11.50
2023-08-12T03:43:19.872Z,11.51
2023-08-12T03:43:51.853Z,11.52
2023-08-12T03:44:23.892Z,11.55
2023-08-12T03:44:55.953Z,11.59
2023-08-12T03:45:28.086Z,11.58
2023-08-12T03:46:00.211Z,11.59
2023-08-12T03:46:32.380Z,11.59
2023-08-12T03:47:04.772Z,11.59
2023-08-12T03:47:36.855Z,11.61
2023-08-12T03:48:09.098Z,11.62
2023-08-12T03:48:41.213Z,11.62
2023-08-12T03:49:13.287Z,11.60
2023-08-12T03:49:45.380Z,11.64
2023-08-12T03:50:17.588Z,11.62
2023-08-12T03:50:50.244Z,11.61
2023-08-12T03:51:22.354Z,11.62
2023-08-12T03:51:54.449Z,11.67
2023-08-12T03:52:26.502Z,11.64
2023-08-12T03:52:58.503Z,11.68
2023-08-12T03:53:30.548Z,11.69
2023-08-12T03:54:02.636Z,11.69
2023-08-12T03:54:36.030Z,11.70
2023-08-12T03:55:08.875Z,11.72
2023-08-12T03:55:40.966Z,11.74
2023-08-12T03:56:13.014Z,11.77
2023-08-12T03:56:45.241Z,11.81
2023-08-12T03:57:17.248Z,11.81
2023-08-12T03:57:49.234Z,11.85
2023-08-12T03:58:21.237Z,11.85
2023-08-12T03:58:53.341Z,11.90
2023-08-12T03:59:25.421Z,11.92
2023-08-12T03:59:57.481Z,11.95
2023-08-12T04:00:29.839Z,11.99
2023-08-12T04:01:01.907Z,11.98
2023-08-12T04:01:33.934Z,12.01
2023-08-12T04:02:05.966Z,12.00
2023-08-12T04:02:37.966Z,12.01
2023-08-12T04:03:10.007Z,12.05
2023-08-12T04:03:42.189Z,12.05
2023-08-12T04:04:14.793Z,12.08
2023-08-12T04:04:46.906Z,12.12
2023-08-12T04:05:18.981Z,12.13
2023-08-12T04:05:51.490Z,12.13
2023-08-12T04:06:23.504Z,12.15
2023-08-12T04:06:55.524Z,12.19
2023-08-12T04:07:27.536Z,12.22
2023-08-12T04:07:59.749Z,12.24
2023-08-12T04:08:31.730Z,12.25
2023-08-12T04:09:03.947Z,12.23
2023-08-12T04:09:37.325Z,12.29
2023-08-12T04:10:10.225Z,12.32
2023-08-12T04:10:49.067Z,12.37
2023-08-12T04:11:21.198Z,12.41
2023-08-12T04:11:53.241Z,12.43
2023-08-12T04:12:25.264Z,12.46
2023-08-12T04:12:57.308Z,12.47
2023-08-12T04:13:29.353Z,12.49
2023-08-12T04:14:01.347Z,12.51
2023-08-12T04:14:33.430Z,12.54
2023-08-12T04:15:06.315Z,12.55
2023-08-12T04:15:38.505Z,12.57
2023-08-12T04:16:10.519Z,12.58
2023-08-12T04:16:42.649Z,12.56
2023-08-12T04:17:14.846Z,12.56
2023-08-12T04:17:47.057Z,12.57
2023-08-12T04:18:19.199Z,12.55
2023-08-12T04:18:51.235Z,12.56
2023-08-12T04:19:23.237Z,12.57
2023-08-12T04:19:55.312Z,12.56
2023-08-12T04:20:27.329Z,12.60
2023-08-12T04:20:59.441Z,12.64
2023-08-12T04:21:31.690Z,12.65
2023-08-12T04:22:03.952Z,12.67
2023-08-12T04:22:36.176Z,12.69
2023-08-12T04:23:08.331Z,12.71
2023-08-12T04:23:40.626Z,12.69
2023-08-12T04:24:12.708Z,12.72
2023-08-12T04:24:46.119Z,12.73
2023-08-12T04:25:18.224Z,12.74
2023-08-12T04:25:50.681Z,12.77
2023-08-12T04:26:22.854Z,12.79
2023-08-12T04:26:54.893Z,12.79
2023-08-12T04:27:27.028Z,12.79
2023-08-12T04:27:59.131Z,12.79
2023-08-12T04:28:31.194Z,12.79
2023-08-12T04:29:03.302Z,12.79
2023-08-12T04:29:36.777Z,12.80
2023-08-12T04:30:10.009Z,12.76
2023-08-12T04:30:43.200Z,12.77
2023-08-12T04:31:15.603Z,12.77
2023-08-12T04:31:47.753Z,12.77
2023-08-12T04:32:19.745Z,12.78
2023-08-12T04:32:51.860Z,12.78
2023-08-12T04:33:24.980Z,12.78
2023-08-12T04:33:56.983Z,12.75
2023-08-12T04:34:29.046Z,12.77
2023-08-12T04:35:01.020Z,12.75
2023-08-12T04:35:33.375Z,12.78
2023-08-12T04:36:06.203Z,12.79
2023-08-12T04:36:38.265Z,12.77
2023-08-12T04:37:10.500Z,12.77
2023-08-12T04:37:42.826Z,12.79
2023-08-12T04:38:14.992Z,12.80
2023-08-12T04:38:47.069Z,12.82
2023-08-12T04:39:19.168Z,12.84
2023-08-12T04:39:52.584Z,12.87
2023-08-12T04:40:24.607Z,12.90
2023-08-12T04:40:56.668Z,12.92
2023-08-12T04:41:28.705Z,12.91
2023-08-12T04:42:00.782Z,12.84
2023-08-12T04:42:32.853Z,12.88
2023-08-12T04:43:05.141Z,12.86
2023-08-12T04:43:37.250Z,12.89
2023-08-12T04:44:09.329Z,12.90
2023-08-12T04:44:41.400Z,12.93
2023-08-12T04:45:13.387Z,12.93
2023-08-12T04:45:46.684Z,12.91
2023-08-12T04:46:19.104Z,12.91
2023-08-12T04:46:51.251Z,12.94
2023-08-12T04:47:23.313Z,12.96
2023-08-12T04:47:56.405Z,13.03
2023-08-12T04:48:28.536Z,13.07
2023-08-12T04:49:00.672Z,13.10
2023-08-12T04:49:32.740Z,13.13
2023-08-12T04:50:05.441Z,13.15
2023-08-12T04:50:37.538Z,13.17
2023-08-12T04:51:09.604Z,13.15
2023-08-12T04:51:41.651Z,13.17
2023-08-12T04:52:13.684Z,13.22
2023-08-12T04:52:45.812Z,13.22
2023-08-12T04:53:17.985Z,13.24
2023-08-12T04:53:50.835Z,13.27
2023-08-12T04:54:22.954Z,13.29
2023-08-12T04:54:56.407Z,13.31
2023-08-12T04:55:28.914Z,13.32
2023-08-12T04:56:00.908Z,13.32
2023-08-12T04:56:32.905Z,13.34
2023-08-12T04:57:05.239Z,13.35
2023-08-12T04:57:37.368Z,13.39
2023-08-12T04:58:09.425Z,13.35
2023-08-12T04:58:41.517Z,13.39
2023-08-12T04:59:13.604Z,13.41
2023-08-12T04:59:45.712Z,13.43
2023-08-12T05:00:17.817Z,13.43
2023-08-12T05:00:49.862Z,13.44
2023-08-12T05:01:22.246Z,13.45
2023-08-12T05:02:03.992Z,13.45
2023-08-12T05:02:46.450Z,13.45
2023-08-12T05:03:18.706Z,13.47
2023-08-12T05:03:50.809Z,13.48
2023-08-12T05:04:24.205Z,13.49
2023-08-12T05:04:56.305Z,13.52
2023-08-12T05:05:28.521Z,13.52
2023-08-12T05:06:00.597Z,13.54
2023-08-12T05:06:32.763Z,13.55
2023-08-12T05:07:04.923Z,13.55
2023-08-12T05:07:40.022Z,13.52
2023-08-12T05:08:13.157Z,13.52
2023-08-12T05:08:45.256Z,13.48
2023-08-12T05:09:17.353Z,13.43
2023-08-12T05:09:49.435Z,13.45
2023-08-12T05:10:22.903Z,13.43
2023-08-12T05:10:54.941Z,13.42
2023-08-12T05:11:26.950Z,13.39
2023-08-12T05:11:58.999Z,13.36
2023-08-12T05:12:31.098Z,13.37
2023-08-12T05:13:03.335Z,13.40
2023-08-12T05:13:35.501Z,13.39
2023-08-12T05:14:07.597Z,13.40
2023-08-12T05:14:41.346Z,13.41
2023-08-12T05:15:13.363Z,13.42
2023-08-12T05:15:49.458Z,13.39
2023-08-12T05:16:21.566Z,13.34
2023-08-12T05:16:53.672Z,13.33
2023-08-12T05:17:25.843Z,13.34
2023-08-12T05:17:57.926Z,13.33
2023-08-12T05:18:30.233Z,13.35
2023-08-12T05:19:02.277Z,13.37
2023-08-12T05:19:34.362Z,13.37
2023-08-12T05:20:07.895Z,13.38
2023-08-12T05:20:41.397Z,13.36
2023-08-12T05:21:14.746Z,13.39
2023-08-12T05:21:46.872Z,13.34
2023-08-12T05:22:18.911Z,13.29
2023-08-12T05:22:50.899Z,13.35
2023-08-12T05:23:23.057Z,13.38
2023-08-12T05:23:55.085Z,13.37
2023-08-12T05:24:27.314Z,13.37
2023-08-12T05:25:00.349Z,13.40
2023-08-12T05:25:33.940Z,13.44
2023-08-12T05:27:45.673Z,13.59
2023-08-12T05:28:17.763Z,13.64
2023-08-12T05:28:49.779Z,13.67
2023-08-12T05:29:21.801Z,13.66
2023-08-12T05:29:54.044Z,13.70
2023-08-12T05:30:26.278Z,13.73
2023-08-12T05:30:58.316Z,13.75
2023-08-12T05:31:30.844Z,13.78
2023-08-12T05:32:03.002Z,13.80
2023-08-12T05:32:35.099Z,13.83
2023-08-12T05:33:07.300Z,13.87
2023-08-12T05:33:39.681Z,13.87
2023-08-12T05:34:11.811Z,13.95
2023-08-12T05:34:43.995Z,13.99
2023-08-12T05:35:16.223Z,14.02
2023-08-12T05:35:48.845Z,14.05
2023-08-12T05:36:20.913Z,14.11
2023-08-12T05:36:52.955Z,14.17
2023-08-12T05:37:25.010Z,14.19
2023-08-12T05:37:57.088Z,14.21
2023-08-12T05:38:29.246Z,14.24
2023-08-12T05:39:01.294Z,14.28
2023-08-12T05:39:33.349Z,14.32
2023-08-12T05:40:06.552Z,14.37
2023-08-12T05:40:39.974Z,14.42
2023-08-12T05:41:11.988Z,14.47
2023-08-12T05:41:44.065Z,14.52
2023-08-12T05:42:16.120Z,14.55
2023-08-12T05:42:48.218Z,14.61
2023-08-12T05:43:20.336Z,14.66
2023-08-12T05:43:52.373Z,14.72
2023-08-12T05:44:24.416Z,14.76
2023-08-12T05:44:56.518Z,14.80
2023-08-12T05:45:28.608Z,14.83
2023-08-12T05:46:00.680Z,14.86
2023-08-12T05:46:32.721Z,14.90
2023-08-12T05:47:05.008Z,14.95
2023-08-12T05:47:37.219Z,14.96
2023-08-12T05:48:12.286Z,15.08
2023-08-12T05:48:44.395Z,15.12
2023-08-12T05:49:16.435Z,15.12
2023-08-12T05:49:48.530Z,15.16
2023-08-12T05:50:20.553Z,15.17
2023-08-12T05:50:52.624Z,15.21
2023-08-12T05:51:24.674Z,15.26
2023-08-12T05:51:56.890Z,15.33
2023-08-12T05:52:29.123Z,15.36
2023-08-12T05:53:04.985Z,15.39
2023-08-12T05:53:37.308Z,15.45
2023-08-12T05:54:09.380Z,15.47
2023-08-12T05:54:41.372Z,15.51
2023-08-12T05:55:13.457Z,15.56
2023-08-12T05:55:46.935Z,15.62
2023-08-12T05:56:19.024Z,15.70
2023-08-12T05:56:51.024Z,15.75
2023-08-12T05:57:23.172Z,15.81
2023-08-12T05:57:55.334Z,15.89
2023-08-12T05:58:27.380Z,15.92
2023-08-12T05:58:59.490Z,15.97
2023-08-12T05:59:31.557Z,16.01
2023-08-12T06:00:04.315Z,16.03
2023-08-12T06:00:36.411Z,16.06
2023-08-12T06:01:08.524Z,16.07
2023-08-12T06:01:40.935Z,16.19
2023-08-12T06:02:13.194Z,16.20
2023-08-12T06:02:45.489Z,16.22
2023-08-12T06:03:17.904Z,16.30
2023-08-12T06:03:50.148Z,16.34
2023-08-12T06:04:22.252Z,16.38
2023-08-12T06:04:54.363Z,16.42
2023-08-12T06:05:26.422Z,16.48
2023-08-12T06:05:58.418Z,16.56
2023-08-12T06:06:30.499Z,16.59
2023-08-12T06:07:02.552Z,16.65
2023-08-12T06:07:34.631Z,16.75
2023-08-12T06:08:06.910Z,16.84
2023-08-12T06:08:38.959Z,16.87
2023-08-12T06:09:11.351Z,16.94
2023-08-12T06:09:43.358Z,17.02
2023-08-12T06:10:15.421Z,17.07
2023-08-12T06:10:48.906Z,17.12
2023-08-12T06:11:20.951Z,17.20
2023-08-12T06:11:52.980Z,17.29
2023-08-12T06:12:25.039Z,17.37
2023-08-12T06:12:57.052Z,17.46
2023-08-12T06:13:29.150Z,17.55
2023-08-12T06:14:01.331Z,17.57
2023-08-12T06:14:33.492Z,17.62
2023-08-12T06:15:06.554Z,17.68
2023-08-12T06:15:38.689Z,17.85
2023-08-12T06:16:10.920Z,17.98
2023-08-12T06:16:43.065Z,18.13
2023-08-12T06:17:15.192Z,18.18
2023-08-12T06:17:47.246Z,18.25
2023-08-12T06:18:19.298Z,18.23
2023-08-12T06:18:51.384Z,18.37
2023-08-12T06:19:23.439Z,18.42
2023-08-12T06:19:55.430Z,18.43
2023-08-12T06:20:27.653Z,18.39
2023-08-12T06:20:59.632Z,18.58
2023-08-12T06:21:31.833Z,18.79
2023-08-12T06:22:04.045Z,18.89
2023-08-12T06:22:36.121Z,19.01
2023-08-12T06:23:08.170Z,19.06
2023-08-12T06:23:40.273Z,19.13
2023-08-12T06:24:12.387Z,19.24
2023-08-12T06:24:44.444Z,19.23
2023-08-12T06:25:16.670Z,19.39
2023-08-12T06:25:50.065Z,19.57
2023-08-12T06:26:22.105Z,19.66
2023-08-12T06:26:54.160Z,19.61
2023-08-12T06:27:26.272Z,19.59
2023-08-12T06:27:58.300Z,19.79
2023-08-12T06:28:30.404Z,19.93
2023-08-12T06:29:05.703Z,20.03
2023-08-12T06:29:38.171Z,20.08
2023-08-12T06:30:11.638Z,20.16
2023-08-12T06:30:46.261Z,20.31
2023-08-12T06:31:18.323Z,20.44
2023-08-12T06:31:50.407Z,20.43
2023-08-12T06:32:22.558Z,20.44
2023-08-12T06:32:54.644Z,20.54
2023-08-12T06:33:26.891Z,20.68
2023-08-12T06:33:59.023Z,20.78
2023-08-12T06:34:31.105Z,20.75
2023-08-12T06:35:03.416Z,20.73
2023-08-12T06:35:35.448Z,20.74
2023-08-12T06:36:07.904Z,20.90
2023-08-12T06:36:40.161Z,21.05
2023-08-12T06:37:12.267Z,21.11
2023-08-12T06:37:44.341Z,20.96
2023-08-12T06:38:16.570Z,20.89
2023-08-12T06:38:52.336Z,20.93
2023-08-12T06:39:24.551Z,20.99
2023-08-12T06:39:56.659Z,20.99
2023-08-12T06:40:29.283Z,21.08
2023-08-12T06:41:02.709Z,21.27
2023-08-12T06:41:34.916Z,21.41
2023-08-12T06:42:07.291Z,21.58
2023-08-12T06:42:39.283Z,21.65
2023-08-12T06:43:11.822Z,21.69
2023-08-12T06:43:43.868Z,21.83
2023-08-12T06:44:15.943Z,21.92
2023-08-12T06:44:55.925Z,21.91
2023-08-12T06:45:28.074Z,21.72
2023-08-12T06:46:00.177Z,21.85
2023-08-12T06:46:32.301Z,21.86
2023-08-12T06:47:04.409Z,21.89
2023-08-12T06:47:36.468Z,22.02
2023-08-12T06:48:08.646Z,22.16
2023-08-12T06:48:40.810Z,22.29
2023-08-12T06:49:13.303Z,22.22
2023-08-12T06:49:45.404Z,22.23
2023-08-12T06:50:17.511Z,22.35
2023-08-12T06:50:54.486Z,22.34
2023-08-12T06:51:26.569Z,22.44
2023-08-12T06:51:58.724Z,22.54
2023-08-12T06:52:30.814Z,22.51
2023-08-12T06:53:02.857Z,22.60
2023-08-12T06:53:34.892Z,22.52
2023-08-12T06:54:06.909Z,22.56
2023-08-12T06:54:39.006Z,22.71
2023-08-12T06:55:11.162Z,22.80
2023-08-12T06:55:45.547Z,22.90
2023-08-12T06:56:18.937Z,23.04
2023-08-12T06:56:51.014Z,23.08
2023-08-12T06:57:23.270Z,23.08
2023-08-12T06:57:55.557Z,23.15
2023-08-12T06:58:27.871Z,23.20
2023-08-12T06:58:59.925Z,23.16
2023-08-12T06:59:31.931Z,23.12
2023-08-12T07:00:04.835Z,23.13
2023-08-12T07:00:36.888Z,23.18
2023-08-12T07:01:08.963Z,23.28
2023-08-12T07:01:41.107Z,23.00
2023-08-12T07:02:13.611Z,23.27